DTKA/TBJ METAR and TAF weather

Enter ICAO airport designator
Station Type Date Time Source
DTKA METAR 2022/01/19 20:00 UTC NOAA

DTKA 192000Z 11002KT 9999 FEW020 06/04 Q1028 NOSIG


Station Type Date Time Source
DTKA Decoded METAR 2022/01/19 20:00 UTC NOAA

Tabarka, Tunisia (DTKA) 36-57N 008-45E 21M
Jan 19, 2022 - 03:00 PM EST / 2022.01.19 2000 UTC
Wind: from the ESE (110 degrees) at 2 MPH (2 KT):0
Visibility: greater than 7 mile(s):0
Sky conditions: mostly clear
Temperature: 42 F (6 C)
Dew Point: 39 F (4 C)
Relative Humidity: 86%
Pressure (altimeter): 30.36 in. Hg (1028 hPa)
ob: DTKA 192000Z 11002KT 9999 FEW020 06/04 Q1028 NOSIG
cycle: 20

Station Type Date Time Source
DTKA TAF 2021/10/19 04:03 UTC NOAA

TAF DTKA 190300Z 1904/2013 08005KT 9999 SCT020

Example: see airport list